createdAt,value
2022-09-06T00:01:50.543Z,101039.28
2022-09-06T00:04:17.287Z,101031.84
2022-09-06T00:06:43.593Z,101031.25
2022-09-06T00:09:09.883Z,101029.44
2022-09-06T00:11:36.783Z,101032.34
2022-09-06T00:14:03.087Z,101024.41
2022-09-06T00:16:30.580Z,101029.22
2022-09-06T00:18:57.330Z,101025.03
2022-09-06T00:21:26.787Z,101027.78
2022-09-06T00:23:53.701Z,101031.53
2022-09-06T00:26:21.010Z,101034.31
2022-09-06T00:28:47.680Z,101037.66
2022-09-06T00:31:22.461Z,101030.69
2022-09-06T00:33:49.343Z,101012.12
2022-09-06T00:36:16.277Z,101031.66
2022-09-06T00:38:42.989Z,101028.78
2022-09-06T00:41:11.720Z,101024.00
2022-09-06T00:43:39.359Z,101025.19
2022-09-06T00:46:07.533Z,101029.38
2022-09-06T00:48:35.791Z,101026.16
2022-09-06T00:51:04.684Z,101027.37
2022-09-06T00:53:31.986Z,101021.13
2022-09-06T00:55:59.000Z,101032.06
2022-09-06T00:58:25.759Z,101019.84
2022-09-06T01:00:52.065Z,101034.84
2022-09-06T01:03:19.502Z,101036.50
2022-09-06T01:06:06.684Z,101038.31
2022-09-06T01:08:51.646Z,101036.50
2022-09-06T01:12:02.337Z,101043.69
2022-09-06T01:14:52.194Z,101043.00
2022-09-06T01:17:34.074Z,101043.00
2022-09-06T01:20:26.915Z,101026.97
2022-09-06T01:22:53.135Z,101053.13
2022-09-06T01:25:42.591Z,101052.62
2022-09-06T01:28:34.972Z,101050.72
2022-09-06T01:31:16.968Z,101050.84
2022-09-06T01:34:06.618Z,101053.38
2022-09-06T01:36:45.754Z,101045.47
2022-09-06T01:39:24.840Z,101046.03
2022-09-06T01:41:52.029Z,101037.00
2022-09-06T01:44:18.498Z,101032.94
2022-09-06T01:47:08.432Z,101041.06
2022-09-06T01:49:58.826Z,101040.37
2022-09-06T01:52:43.492Z,101037.47
2022-09-06T01:55:27.708Z,101058.06
2022-09-06T01:58:35.728Z,101047.75
2022-09-06T02:01:30.722Z,101041.78
2022-09-06T02:03:57.247Z,101042.62
2022-09-06T02:06:29.749Z,101035.78
2022-09-06T02:09:19.043Z,101042.75
2022-09-06T02:11:50.397Z,101033.87
2022-09-06T02:14:23.719Z,101017.53
2022-09-06T02:16:51.188Z,101045.50
2022-09-06T02:19:17.411Z,101045.38
2022-09-06T02:21:46.188Z,101041.78
2022-09-06T02:24:21.518Z,101044.31
2022-09-06T02:26:48.297Z,101043.94
2022-09-06T02:29:15.835Z,101041.19
2022-09-06T02:31:54.685Z,101033.87
2022-09-06T02:34:21.849Z,101034.00
2022-09-06T02:36:48.306Z,101039.53
2022-09-06T02:39:14.628Z,101015.28
2022-09-06T02:41:42.500Z,101042.75
2022-09-06T02:44:08.831Z,101016.84
2022-09-06T02:46:35.151Z,101040.44
2022-09-06T02:49:01.895Z,101040.81
2022-09-06T02:51:28.233Z,101037.78
2022-09-06T02:53:54.654Z,101044.03
2022-09-06T02:56:21.234Z,101043.03
2022-09-06T02:58:47.533Z,101037.63
2022-09-06T03:01:13.940Z,101029.34
2022-09-06T03:03:40.576Z,101027.78
2022-09-06T03:06:07.078Z,101025.47
2022-09-06T03:08:34.203Z,101035.62
2022-09-06T03:11:01.155Z,101039.44
2022-09-06T03:13:27.658Z,101043.97
2022-09-06T03:15:58.016Z,101028.12
2022-09-06T03:18:25.989Z,101031.25
2022-09-06T03:20:53.500Z,101031.38
2022-09-06T03:23:23.586Z,101017.41
2022-09-06T03:25:50.515Z,101034.69
2022-09-06T03:28:18.372Z,101020.53
2022-09-06T03:30:46.120Z,101034.78
2022-09-06T03:33:13.023Z,101039.94
2022-09-06T03:35:39.709Z,101044.56
2022-09-06T03:38:05.975Z,101035.94
2022-09-06T03:40:32.552Z,101033.72
2022-09-06T03:42:58.821Z,101049.22
2022-09-06T03:45:25.104Z,101052.94
2022-09-06T03:47:51.740Z,101054.41
2022-09-06T03:50:18.047Z,101048.78
2022-09-06T03:52:44.352Z,101048.47
2022-09-06T03:55:11.938Z,101049.78
2022-09-06T03:57:38.254Z,101059.25
2022-09-06T04:00:05.335Z,101061.66
2022-09-06T04:02:37.606Z,101065.03
2022-09-06T04:05:04.674Z,101048.94
2022-09-06T04:07:30.956Z,101068.13
2022-09-06T04:09:57.207Z,101061.06
2022-09-06T04:12:23.831Z,101054.25
2022-09-06T04:14:50.096Z,101054.72
2022-09-06T04:17:16.388Z,101057.78
2022-09-06T04:19:42.973Z,101054.91
2022-09-06T04:22:09.272Z,101053.47
2022-09-06T04:24:35.562Z,101049.38
2022-09-06T04:27:02.150Z,101046.13
2022-09-06T04:29:28.478Z,101048.75
2022-09-06T04:31:54.808Z,101040.75
2022-09-06T04:34:21.455Z,101035.25
2022-09-06T04:36:48.575Z,101027.00
2022-09-06T04:39:14.939Z,101028.56
2022-09-06T04:41:42.375Z,101031.81
2022-09-06T04:44:08.784Z,101032.19
2022-09-06T04:46:35.106Z,101049.06
2022-09-06T04:49:01.735Z,101046.44
2022-09-06T04:51:28.103Z,101024.00
2022-09-06T04:53:54.762Z,101035.66
2022-09-06T04:56:23.959Z,101042.28
2022-09-06T04:58:51.524Z,101043.53
2022-09-06T05:01:18.005Z,101038.72
2022-09-06T05:03:44.696Z,101044.00
2022-09-06T05:06:13.948Z,101050.00
2022-09-06T05:08:41.673Z,101048.09
2022-09-06T05:11:09.431Z,101044.94
2022-09-06T05:13:39.073Z,101051.22
2022-09-06T05:16:07.465Z,101055.41
2022-09-06T05:18:37.682Z,101051.56
2022-09-06T05:21:07.505Z,101040.91
2022-09-06T05:23:34.933Z,101060.78
2022-09-06T05:26:01.926Z,101040.53
2022-09-06T05:28:28.331Z,101064.28
2022-09-06T05:31:12.872Z,101065.59
2022-09-06T05:33:40.230Z,101058.50
2022-09-06T05:36:07.939Z,101061.16
2022-09-06T05:38:34.592Z,101059.59
2022-09-06T05:41:01.017Z,101056.84
2022-09-06T05:43:27.649Z,101055.25
2022-09-06T05:45:54.113Z,101059.69
2022-09-06T05:48:20.487Z,101059.53
2022-09-06T05:50:47.143Z,101052.94
2022-09-06T05:53:13.438Z,101045.84
2022-09-06T05:55:42.854Z,101043.19
2022-09-06T05:58:09.549Z,101043.34
2022-09-06T06:00:35.897Z,101016.41
2022-09-06T06:03:02.516Z,101034.72
2022-09-06T06:05:29.061Z,101039.78
2022-09-06T06:07:55.767Z,101046.13
2022-09-06T06:10:22.348Z,101033.63
2022-09-06T06:12:49.752Z,101050.13
2022-09-06T06:15:16.186Z,101048.19
2022-09-06T06:17:43.783Z,101047.06
2022-09-06T06:20:11.096Z,101041.53
2022-09-06T06:22:43.948Z,101045.44
2022-09-06T06:25:23.801Z,101039.31
2022-09-06T06:27:56.632Z,101043.00
2022-09-06T06:30:26.013Z,101028.00
2022-09-06T06:32:53.003Z,101041.88
2022-09-06T06:35:19.410Z,101040.19
2022-09-06T06:37:46.184Z,101041.56
2022-09-06T06:40:13.543Z,101044.06
2022-09-06T06:42:39.927Z,101057.41
2022-09-06T06:45:07.269Z,101052.50
2022-09-06T06:47:33.613Z,101052.34
2022-09-06T06:49:59.940Z,101056.66
2022-09-06T06:52:26.557Z,101061.06
2022-09-06T06:54:53.283Z,101061.38
2022-09-06T06:57:19.753Z,101062.16
2022-09-06T06:59:46.463Z,101066.47
2022-09-06T07:02:15.736Z,101056.16
2022-09-06T07:04:42.203Z,101064.50
2022-09-06T07:12:41.817Z,101052.09
2022-09-06T07:15:08.690Z,101067.09
2022-09-06T07:17:35.644Z,101068.81
2022-09-06T07:22:36.801Z,101067.16
2022-09-06T07:25:05.067Z,101066.03
2022-09-06T07:27:47.743Z,101063.25
2022-09-06T07:30:15.582Z,101079.03
2022-09-06T07:32:41.939Z,101079.75
2022-09-06T07:35:08.985Z,101068.59
2022-09-06T07:37:35.683Z,101049.34
2022-09-06T07:40:03.319Z,101055.78
2022-09-06T07:42:35.679Z,101062.97
2022-09-06T07:45:04.836Z,101056.38
2022-09-06T07:55:33.525Z,101057.44
2022-09-06T07:57:59.816Z,101055.72
2022-09-06T08:00:26.362Z,101049.78
2022-09-06T08:02:53.261Z,101055.13
2022-09-06T08:10:53.459Z,101058.66
2022-09-06T08:13:20.071Z,101053.06
2022-09-06T08:15:46.370Z,101048.03
2022-09-06T08:18:12.659Z,101050.37
2022-09-06T08:20:39.698Z,101059.06
2022-09-06T08:23:10.237Z,101049.91
2022-09-06T08:25:36.570Z,101052.50
2022-09-06T08:28:03.271Z,101044.66
2022-09-06T08:30:29.579Z,101048.06
2022-09-06T08:32:56.808Z,101042.75
2022-09-06T08:35:23.464Z,101042.69
2022-09-06T08:37:49.925Z,101042.75
2022-09-06T08:40:20.860Z,101046.94
2022-09-06T08:42:48.100Z,101041.03
2022-09-06T08:45:19.057Z,101033.75
2022-09-06T08:47:45.700Z,101029.84
2022-09-06T08:50:12.327Z,101029.50
2022-09-06T08:53:00.208Z,101031.44
2022-09-06T08:55:44.826Z,101037.00
2022-09-06T08:58:38.449Z,101020.44
2022-09-06T09:01:11.665Z,101029.75
2022-09-06T09:03:39.760Z,100999.28
2022-09-06T09:06:10.176Z,101027.44
2022-09-06T09:08:46.294Z,101026.94
2022-09-06T09:11:17.571Z,101018.81
2022-09-06T09:13:55.474Z,101012.50
2022-09-06T09:16:22.796Z,101014.91
2022-09-06T09:18:52.595Z,101008.75
2022-09-06T09:21:23.912Z,101008.56
2022-09-06T09:23:56.013Z,101010.81
2022-09-06T09:26:27.570Z,101014.69
2022-09-06T09:29:04.561Z,101006.34
2022-09-06T09:31:39.827Z,101000.63
2022-09-06T09:34:11.182Z,101003.44
2022-09-06T09:36:37.687Z,100999.06
2022-09-06T09:39:09.850Z,100999.91
2022-09-06T09:41:39.612Z,100990.47
2022-09-06T09:44:09.975Z,100998.50
2022-09-06T09:46:39.683Z,100991.16
2022-09-06T09:49:29.227Z,100989.25
2022-09-06T09:52:14.405Z,100991.44
2022-09-06T09:54:44.270Z,100981.78
2022-09-06T09:57:15.309Z,100991.06
2022-09-06T09:59:47.142Z,100984.78
2022-09-06T10:02:39.137Z,100976.91
2022-09-06T10:05:11.995Z,100978.25
2022-09-06T10:07:44.018Z,100974.03
2022-09-06T10:10:15.543Z,100980.28
2022-09-06T10:12:42.903Z,100977.66
2022-09-06T10:15:32.677Z,100964.78
2022-09-06T10:17:59.269Z,100971.31
2022-09-06T10:20:33.419Z,100978.56
2022-09-06T10:26:42.012Z,100959.34
2022-09-06T10:29:14.259Z,100959.94
2022-09-06T10:31:51.461Z,100961.91
2022-09-06T10:34:45.468Z,100957.06
2022-09-06T10:37:29.342Z,100953.53
2022-09-06T10:40:00.918Z,100951.03
2022-09-06T10:42:46.372Z,100953.22
2022-09-06T10:45:36.259Z,100955.34
2022-09-06T10:48:14.407Z,100935.06
2022-09-06T10:50:46.849Z,100945.19
2022-09-06T10:53:56.685Z,100929.78
2022-09-06T10:57:04.711Z,100914.22
2022-09-06T10:59:55.597Z,100939.75
2022-09-06T11:02:41.161Z,100934.25
2022-09-06T11:08:51.199Z,100921.47
2022-09-06T11:11:23.675Z,100913.97
2022-09-06T11:13:50.541Z,100921.47
2022-09-06T11:16:21.552Z,100919.50
2022-09-06T11:18:59.622Z,100921.47
2022-09-06T11:21:26.107Z,100916.88
2022-09-06T11:24:13.890Z,100915.25
2022-09-06T11:26:55.759Z,100910.63
2022-09-06T11:29:24.807Z,100901.84
2022-09-06T11:32:18.138Z,100901.41
2022-09-06T11:34:54.388Z,100891.59
2022-09-06T11:37:45.392Z,100894.84
2022-09-06T11:42:52.161Z,100869.34
2022-09-06T11:45:21.982Z,100888.69
2022-09-06T11:47:50.438Z,100883.28
2022-09-06T11:50:20.052Z,100882.28
2022-09-06T11:52:55.403Z,100870.87
2022-09-06T11:55:25.018Z,100874.88
2022-09-06T11:57:57.392Z,100875.75
2022-09-06T12:00:24.923Z,100868.75
2022-09-06T12:02:52.887Z,100875.06
2022-09-06T12:05:26.419Z,100852.47
2022-09-06T12:08:12.933Z,100842.34
2022-09-06T12:10:39.122Z,100855.47
2022-09-06T12:13:36.780Z,100858.41
2022-09-06T12:16:03.158Z,100857.50
2022-09-06T12:18:48.224Z,100840.00
2022-09-06T12:21:43.878Z,100845.06
2022-09-06T12:24:45.899Z,100847.19
2022-09-06T12:27:20.094Z,100834.59
2022-09-06T12:29:59.417Z,100830.75
2022-09-06T12:32:31.641Z,100833.06
2022-09-06T12:38:07.120Z,100826.84
2022-09-06T12:40:45.582Z,100814.78
2022-09-06T12:43:14.167Z,100817.06
2022-09-06T12:45:45.370Z,100815.91
2022-09-06T12:48:16.107Z,100804.56
2022-09-06T12:50:42.895Z,100807.78
2022-09-06T12:53:26.622Z,100800.97
2022-09-06T12:56:05.780Z,100803.81
2022-09-06T12:58:32.354Z,100790.47
2022-09-06T13:01:05.587Z,100786.34
2022-09-06T13:03:41.215Z,100791.91
2022-09-06T13:06:08.335Z,100776.69
2022-09-06T13:08:39.252Z,100789.19
2022-09-06T13:11:10.519Z,100792.47
2022-09-06T13:13:37.228Z,100778.69
2022-09-06T13:16:03.559Z,100770.78
2022-09-06T13:18:39.679Z,100786.34
2022-09-06T13:21:09.259Z,100783.59
2022-09-06T13:23:50.382Z,100777.69
2022-09-06T13:26:37.048Z,100761.19
2022-09-06T13:29:15.333Z,100765.09
2022-09-06T13:31:45.926Z,100770.16
2022-09-06T13:34:23.732Z,100763.75
2022-09-06T13:36:52.548Z,100780.59
2022-09-06T13:39:37.529Z,100773.50
2022-09-06T13:42:07.354Z,100766.34
2022-09-06T13:44:35.676Z,100763.41
2022-09-06T13:47:02.254Z,100760.09
2022-09-06T13:49:29.346Z,100733.62
2022-09-06T13:52:00.215Z,100752.63
2022-09-06T13:54:26.828Z,100747.47
2022-09-06T13:56:53.437Z,100752.63
2022-09-06T13:59:20.112Z,100745.16
2022-09-06T14:01:48.463Z,100754.69
2022-09-06T14:04:20.130Z,100741.78
2022-09-06T14:06:46.928Z,100740.31
2022-09-06T14:09:13.511Z,100747.84
2022-09-06T14:11:41.422Z,100745.25
2022-09-06T14:14:10.106Z,100747.09
2022-09-06T14:16:36.727Z,100737.81
2022-09-06T14:19:04.786Z,100737.72
2022-09-06T14:21:32.774Z,100719.28
2022-09-06T14:24:03.898Z,100738.31
2022-09-06T14:26:32.120Z,100740.59
2022-09-06T14:28:58.532Z,100734.25
2022-09-06T14:31:26.957Z,100741.25
2022-09-06T14:33:54.737Z,100729.19
2022-09-06T14:36:23.392Z,100720.72
2022-09-06T14:38:50.428Z,100725.84
2022-09-06T14:41:18.857Z,100720.91
2022-09-06T14:43:50.151Z,100720.00
2022-09-06T14:46:18.230Z,100716.22
2022-09-06T14:48:45.298Z,100725.41
2022-09-06T14:51:22.076Z,100709.97
2022-09-06T14:53:51.983Z,100713.03
2022-09-06T14:56:19.222Z,100723.16
2022-09-06T14:58:46.660Z,100722.53
2022-09-06T15:01:19.501Z,100720.84
2022-09-06T15:03:48.636Z,100716.72
2022-09-06T15:06:16.143Z,100716.44
2022-09-06T15:08:42.865Z,100719.88
2022-09-06T15:11:10.193Z,100714.47
2022-09-06T15:13:37.276Z,100713.34
2022-09-06T15:16:08.835Z,100709.97
2022-09-06T15:18:35.741Z,100714.25
2022-09-06T15:21:13.295Z,100708.44
2022-09-06T15:23:39.974Z,100697.25
2022-09-06T15:26:08.442Z,100691.47
2022-09-06T15:28:35.934Z,100702.75
2022-09-06T15:31:02.377Z,100703.75
2022-09-06T15:33:30.762Z,100713.06
2022-09-06T15:35:57.356Z,100705.16
2022-09-06T15:38:23.852Z,100703.47
2022-09-06T15:40:50.848Z,100695.81
2022-09-06T15:43:17.168Z,100691.19
2022-09-06T15:45:48.274Z,100674.37
2022-09-06T15:48:16.557Z,100678.75
2022-09-06T15:50:51.273Z,100692.00
2022-09-06T15:53:19.652Z,100687.56
2022-09-06T15:55:58.202Z,100687.28
2022-09-06T15:58:26.665Z,100703.16
2022-09-06T16:01:06.718Z,100718.16
2022-09-06T16:03:45.868Z,100725.47
2022-09-06T16:08:55.585Z,100724.84
2022-09-06T16:11:21.966Z,100712.97
2022-09-06T16:13:48.667Z,100705.19
2022-09-06T16:16:17.085Z,100690.63
2022-09-06T16:18:46.607Z,100694.13
2022-09-06T16:21:28.346Z,100693.56
2022-09-06T16:24:00.006Z,100685.25
2022-09-06T16:26:32.343Z,100689.62
2022-09-06T16:29:00.356Z,100683.34
2022-09-06T16:31:27.594Z,100682.59
2022-09-06T16:33:54.177Z,100680.16
2022-09-06T16:36:21.645Z,100662.91
2022-09-06T16:38:48.538Z,100655.31
2022-09-06T16:41:28.695Z,100663.41
2022-09-06T16:43:55.810Z,100672.22
2022-09-06T16:46:23.860Z,100679.09
2022-09-06T16:48:54.882Z,100679.00
2022-09-06T16:51:23.892Z,100683.84
2022-09-06T16:53:52.000Z,100680.91
2022-09-06T16:56:21.140Z,100676.41
2022-09-06T16:58:54.167Z,100674.47
2022-09-06T17:01:21.312Z,100668.50
2022-09-06T17:03:48.476Z,100672.53
2022-09-06T17:06:15.186Z,100673.34
2022-09-06T17:08:41.948Z,100681.31
2022-09-06T17:11:17.190Z,100680.50
2022-09-06T17:13:45.297Z,100678.22
2022-09-06T17:16:31.474Z,100683.72
2022-09-06T17:18:59.604Z,100683.56
2022-09-06T17:21:26.248Z,100677.94
2022-09-06T17:23:53.077Z,100689.44
2022-09-06T17:26:21.276Z,100677.69
2022-09-06T17:28:49.636Z,100683.66
2022-09-06T17:31:16.663Z,100687.81
2022-09-06T17:33:43.025Z,100685.72
2022-09-06T17:36:14.787Z,100691.06
2022-09-06T17:38:42.944Z,100693.75
2022-09-06T17:41:27.928Z,100690.78
2022-09-06T17:43:54.891Z,100692.13
2022-09-06T17:46:26.594Z,100684.81
2022-09-06T17:48:55.115Z,100701.31
2022-09-06T17:51:21.839Z,100706.47
2022-09-06T17:53:48.284Z,100685.19
2022-09-06T17:56:17.387Z,100694.50
2022-09-06T17:58:45.054Z,100710.50
2022-09-06T18:01:13.981Z,100712.81
2022-09-06T18:03:42.008Z,100712.03
2022-09-06T18:06:13.190Z,100714.19
2022-09-06T18:08:41.874Z,100706.53
2022-09-06T18:11:13.957Z,100707.19
2022-09-06T18:13:41.978Z,100704.19
2022-09-06T18:16:10.024Z,100705.50
2022-09-06T18:18:36.726Z,100710.38
2022-09-06T18:21:04.587Z,100709.03
2022-09-06T18:23:31.853Z,100710.69
2022-09-06T18:26:06.062Z,100714.87
2022-09-06T18:28:34.947Z,100719.50
2022-09-06T18:31:05.300Z,100682.41
2022-09-06T18:33:31.772Z,100718.53
2022-09-06T18:35:58.486Z,100702.53
2022-09-06T18:38:25.948Z,100704.56
2022-09-06T18:40:53.162Z,100718.19
2022-09-06T18:43:20.314Z,100715.84
2022-09-06T18:45:46.702Z,100710.22
2022-09-06T18:48:13.531Z,100708.19
2022-09-06T18:50:40.248Z,100693.22
2022-09-06T18:53:06.776Z,100715.88
2022-09-06T18:55:43.492Z,100711.84
2022-09-06T18:58:14.138Z,100722.88
2022-09-06T19:00:40.827Z,100713.22
2022-09-06T19:03:07.211Z,100724.19
2022-09-06T19:05:37.067Z,100732.31
2022-09-06T19:08:04.553Z,100722.34
2022-09-06T19:10:31.158Z,100720.12
2022-09-06T19:12:57.791Z,100711.16
2022-09-06T19:15:24.695Z,100700.84
2022-09-06T19:17:51.882Z,100688.50
2022-09-06T19:20:19.383Z,100709.28
2022-09-06T19:22:45.925Z,100697.97
2022-09-06T19:25:12.280Z,100710.09
2022-09-06T19:27:38.916Z,100699.97
2022-09-06T19:30:06.927Z,100686.66
2022-09-06T19:32:34.590Z,100682.44
2022-09-06T19:35:01.497Z,100692.44
2022-09-06T19:37:29.519Z,100690.81
2022-09-06T19:39:56.346Z,100702.44
2022-09-06T19:42:23.317Z,100700.75
2022-09-06T19:44:49.647Z,100704.44
2022-09-06T19:47:15.982Z,100684.75
2022-09-06T19:49:42.628Z,100701.44
2022-09-06T19:52:09.765Z,100703.38
2022-09-06T19:54:37.368Z,100705.34
2022-09-06T19:57:04.407Z,100712.91
2022-09-06T19:59:31.001Z,100706.34
2022-09-06T20:01:57.393Z,100691.13
2022-09-06T20:04:24.230Z,100712.38
2022-09-06T20:06:50.575Z,100714.28
2022-09-06T20:09:16.995Z,100712.41
2022-09-06T20:11:44.025Z,100682.44
2022-09-06T20:14:11.577Z,100703.88
2022-09-06T20:16:41.500Z,100700.19
2022-09-06T20:19:09.412Z,100707.78
2022-09-06T20:21:35.743Z,100690.66
2022-09-06T20:24:02.291Z,100681.16
2022-09-06T20:26:30.366Z,100664.75
2022-09-06T20:29:01.328Z,100677.87
2022-09-06T20:31:29.167Z,100672.72
2022-09-06T20:33:56.062Z,100685.38
2022-09-06T20:36:22.377Z,100680.06
2022-09-06T20:38:48.900Z,100681.75
2022-09-06T20:41:18.202Z,100687.94
2022-09-06T20:43:44.948Z,100691.41
2022-09-06T20:46:16.761Z,100698.37
2022-09-06T20:48:45.362Z,100698.37
2022-09-06T20:51:18.714Z,100697.53
2022-09-06T20:53:51.838Z,100700.72
2022-09-06T20:56:20.117Z,100704.38
2022-09-06T20:58:51.638Z,100698.22
2022-09-06T21:01:23.007Z,100680.38
2022-09-06T21:03:52.086Z,100708.22
2022-09-06T21:06:20.331Z,100689.19
2022-09-06T21:08:47.280Z,100697.09
2022-09-06T21:11:14.103Z,100713.75
2022-09-06T21:13:40.730Z,100708.03
2022-09-06T21:16:07.730Z,100717.50
2022-09-06T21:18:34.979Z,100718.22
2022-09-06T21:21:03.895Z,100721.50
2022-09-06T21:23:32.793Z,100720.44
2022-09-06T21:26:01.216Z,100723.38
2022-09-06T21:28:29.513Z,100717.53
2022-09-06T21:31:11.721Z,100719.53
2022-09-06T21:33:40.589Z,100720.00
2022-09-06T21:36:11.899Z,100720.59
2022-09-06T21:38:40.528Z,100720.34
2022-09-06T21:41:08.027Z,100718.16
2022-09-06T21:43:34.991Z,100724.06
2022-09-06T21:46:07.013Z,100716.69
2022-09-06T21:48:44.762Z,100707.38
2022-09-06T21:51:14.119Z,100713.12
2022-09-06T21:53:42.047Z,100716.22
2022-09-06T21:56:08.857Z,100717.50
2022-09-06T21:58:35.581Z,100696.94
2022-09-06T22:01:02.413Z,100711.97
2022-09-06T22:03:32.008Z,100711.72
2022-09-06T22:05:58.863Z,100704.22
2022-09-06T22:08:25.822Z,100706.72
2022-09-06T22:10:52.507Z,100701.81
2022-09-06T22:13:19.928Z,100702.66
2022-09-06T22:15:46.439Z,100704.91
2022-09-06T22:18:13.597Z,100705.06
2022-09-06T22:20:40.109Z,100703.53
2022-09-06T22:23:07.640Z,100707.31
2022-09-06T22:25:34.597Z,100710.94
2022-09-06T22:28:01.366Z,100717.09
2022-09-06T22:30:28.005Z,100726.00
2022-09-06T22:32:54.756Z,100717.38
2022-09-06T22:35:21.427Z,100708.19
2022-09-06T22:37:47.765Z,100714.03
2022-09-06T22:40:14.566Z,100707.91
2022-09-06T22:42:40.913Z,100698.16
2022-09-06T22:45:07.724Z,100698.16
2022-09-06T22:47:34.343Z,100686.59
2022-09-06T22:50:00.652Z,100705.09
2022-09-06T22:52:27.112Z,100697.84
2022-09-06T22:54:53.752Z,100686.16
2022-09-06T22:57:20.067Z,100683.22
2022-09-06T22:59:46.383Z,100687.09
2022-09-06T23:02:13.023Z,100683.75
2022-09-06T23:04:39.401Z,100681.94
2022-09-06T23:07:06.082Z,100676.66
2022-09-06T23:09:32.741Z,100687.09
2022-09-06T23:11:59.120Z,100665.53
2022-09-06T23:14:27.915Z,100689.19
2022-09-06T23:16:54.564Z,100684.59
2022-09-06T23:19:20.901Z,100679.59
2022-09-06T23:21:47.211Z,100688.50
2022-09-06T23:24:13.920Z,100670.03
2022-09-06T23:26:40.347Z,100686.72
2022-09-06T23:29:07.926Z,100674.78
2022-09-06T23:31:35.089Z,100668.53
2022-09-06T23:34:02.370Z,100678.69
2022-09-06T23:36:28.784Z,100676.03
2022-09-06T23:38:56.067Z,100683.31
2022-09-06T23:41:22.816Z,100678.28
2022-09-06T23:43:49.458Z,100682.91
2022-09-06T23:46:16.272Z,100684.59
2022-09-06T23:48:43.474Z,100685.56
2022-09-06T23:51:10.119Z,100696.88
2022-09-06T23:53:36.806Z,100674.81
2022-09-06T23:56:03.766Z,100683.00
2022-09-06T23:58:30.391Z,100685.84
